Time,TemperatureF,DewpointF,PressureIn,WindDirection,WindDirectionDegrees,WindSpeedMPH,WindSpeedGustMPH,Humidity,HourlyPrecipIn,Conditions,Clouds,dailyrainin,SoftwareType,DateUTC
2013-02-22 00:00:00,43.9,19.9,30.33,East,90,0.0,1.0,38,0.00,,,0.00,meteohub,2013-02-22 05:00:00,
2013-02-22 00:02:00,43.9,19.9,30.33,East,90,0.0,1.0,38,0.00,,,0.00,meteohub,2013-02-22 05:02:00,
2013-02-22 00:07:00,43.7,19.8,30.34,NE,45,0.0,0.0,38,0.00,,,0.00,meteohub,2013-02-22 05:07:00,
2013-02-22 00:12:00,43.7,19.0,30.34,NE,45,0.0,0.0,37,0.00,,,0.00,meteohub,2013-02-22 05:12:00,
2013-02-22 00:17:00,43.5,19.6,30.35,NE,45,0.0,0.0,38,0.00,,,0.00,meteohub,2013-02-22 05:17:00,
2013-02-22 00:22:00,43.5,19.0,30.36,East,90,0.0,0.0,37,0.00,,,0.00,meteohub,2013-02-22 05:22:00,
2013-02-22 00:27:00,43.3,19.4,30.37,East,90,0.0,0.0,38,0.00,,,0.00,meteohub,2013-02-22 05:27:00,
2013-02-22 00:32:00,43.3,19.4,30.38,East,90,0.0,0.0,38,0.00,,,0.00,meteohub,2013-02-22 05:32:00,
2013-02-22 00:37:00,43.3,19.4,30.38,East,90,0.0,0.0,38,0.00,,,0.00,meteohub,2013-02-22 05:37:00,
2013-02-22 00:43:00,43.3,20.1,30.38,East,90,0.0,0.0,39,0.00,,,0.00,meteohub,2013-02-22 05:43:00,
2013-02-22 00:48:00,43.3,20.1,30.38,East,90,0.0,0.0,39,0.00,,,0.00,meteohub,2013-02-22 05:48:00,
2013-02-22 00:53:00,43.2,20.5,30.39,East,90,0.0,0.0,40,0.00,,,0.00,meteohub,2013-02-22 05:53:00,
2013-02-22 00:59:00,43.0,20.8,30.40,East,90,0.0,0.0,41,0.00,,,0.00,meteohub,2013-02-22 05:59:00,
2013-02-22 01:04:00,42.8,20.1,30.42,ESE,113,0.0,0.0,40,0.00,,,0.00,meteohub,2013-02-22 06:04:00,
2013-02-22 01:09:00,42.6,21.7,30.43,ESE,113,0.0,0.0,43,0.00,,,0.00,meteohub,2013-02-22 06:09:00,
2013-02-22 01:14:00,42.4,22.1,30.44,ESE,113,0.0,0.0,44,0.00,,,0.00,meteohub,2013-02-22 06:14:00,
2013-02-22 01:19:00,42.3,21.9,30.44,ESE,113,0.0,0.0,44,0.00,,,0.00,meteohub,2013-02-22 06:19:00,
2013-02-22 01:24:00,42.3,23.0,30.45,ESE,113,0.0,0.0,46,0.00,,,0.00,meteohub,2013-02-22 06:24:00,
2013-02-22 01:30:00,42.1,22.3,30.45,ESE,113,0.0,0.0,45,0.00,,,0.00,meteohub,2013-02-22 06:30:00,
2013-02-22 01:35:00,41.9,22.1,30.44,ESE,113,0.0,0.0,45,0.00,,,0.00,meteohub,2013-02-22 06:35:00,
2013-02-22 01:40:00,41.9,23.2,30.43,ESE,113,0.0,0.0,47,0.00,,,0.00,meteohub,2013-02-22 06:40:00,
2013-02-22 01:45:00,41.9,23.7,30.43,ESE,113,0.0,0.0,48,0.00,,,0.00,meteohub,2013-02-22 06:45:00,
2013-02-22 01:50:00,41.7,24.4,30.42,ESE,113,0.0,0.0,50,0.00,,,0.00,meteohub,2013-02-22 06:50:00,
2013-02-22 01:55:00,41.7,23.9,30.42,ESE,113,0.0,0.0,49,0.00,,,0.00,meteohub,2013-02-22 06:55:00,
2013-02-22 02:00:00,41.5,23.7,30.41,ESE,113,0.0,0.0,49,0.00,,,0.00,meteohub,2013-02-22 07:00:00,
2013-02-22 02:06:00,41.5,24.3,30.40,ESE,113,0.0,0.0,50,0.00,,,0.00,meteohub,2013-02-22 07:06:00,
2013-02-22 02:11:00,41.0,24.8,30.40,ESE,113,0.0,0.0,52,0.00,,,0.00,meteohub,2013-02-22 07:11:00,
2013-02-22 02:16:00,40.8,25.9,30.39,ESE,113,0.0,0.0,55,0.00,,,0.00,meteohub,2013-02-22 07:16:00,
2013-02-22 02:21:00,40.3,27.1,30.39,ESE,113,0.0,0.0,59,0.00,,,0.00,meteohub,2013-02-22 07:21:00,
2013-02-22 02:26:00,39.7,27.9,30.39,ESE,113,0.0,0.0,62,0.01,,,0.01,meteohub,2013-02-22 07:26:00,
2013-02-22 02:31:00,39.2,28.0,30.40,ESE,113,0.0,0.0,64,0.01,,,0.01,meteohub,2013-02-22 07:31:00,
2013-02-22 02:37:00,38.8,28.8,30.40,ESE,113,0.0,0.0,67,0.02,,,0.02,meteohub,2013-02-22 07:37:00,
2013-02-22 02:42:00,38.3,28.9,30.39,ESE,113,0.0,0.0,69,0.04,,,0.04,meteohub,2013-02-22 07:42:00,
2013-02-22 02:47:00,37.9,29.3,30.39,ESE,113,0.0,0.0,71,0.04,,,0.04,meteohub,2013-02-22 07:47:00,
2013-02-22 02:52:00,37.6,29.7,30.39,East,90,0.0,0.0,73,0.05,,,0.05,meteohub,2013-02-22 07:52:00,
2013-02-22 02:58:00,37.2,28.4,30.40,NE,45,0.0,0.0,70,0.05,,,0.05,meteohub,2013-02-22 07:58:00,
2013-02-22 03:03:00,37.0,28.6,30.40,NE,45,0.0,0.0,71,0.06,,,0.06,meteohub,2013-02-22 08:03:00,
2013-02-22 03:08:00,36.7,28.8,30.40,NE,45,0.0,0.0,73,0.07,,,0.07,meteohub,2013-02-22 08:08:00,
2013-02-22 03:14:00,36.5,28.8,30.41,NE,45,0.0,0.0,73,0.07,,,0.07,meteohub,2013-02-22 08:14:00,
2013-02-22 03:19:00,36.3,28.8,30.41,NE,45,0.0,0.0,74,0.08,,,0.08,meteohub,2013-02-22 08:19:00,
2013-02-22 03:24:00,36.1,28.9,30.42,NE,45,0.0,0.0,75,0.08,,,0.08,meteohub,2013-02-22 08:24:00,
2013-02-22 03:29:00,36.0,29.1,30.41,NE,45,0.0,0.0,76,0.08,,,0.09,meteohub,2013-02-22 08:29:00,
2013-02-22 03:34:00,35.8,29.7,30.41,NE,45,0.0,0.0,78,0.09,,,0.11,meteohub,2013-02-22 08:34:00,
2013-02-22 03:39:00,35.8,29.7,30.42,NE,45,0.0,0.0,78,0.09,,,0.12,meteohub,2013-02-22 08:39:00,
2013-02-22 03:45:00,35.6,29.7,30.42,NE,45,0.0,0.0,79,0.09,,,0.13,meteohub,2013-02-22 08:45:00,
2013-02-22 03:50:00,35.6,29.7,30.42,NE,45,0.0,0.0,79,0.09,,,0.14,meteohub,2013-02-22 08:50:00,
2013-02-22 03:55:00,35.4,30.2,30.42,NE,45,0.0,0.0,81,0.11,,,0.15,meteohub,2013-02-22 08:55:00,
2013-02-22 04:00:00,35.4,30.6,30.41,NE,45,0.0,0.0,82,0.09,,,0.15,meteohub,2013-02-22 09:00:00,
2013-02-22 04:05:00,35.4,30.6,30.40,East,90,0.0,0.0,82,0.09,,,0.17,meteohub,2013-02-22 09:05:00,
2013-02-22 04:10:00,35.2,30.6,30.40,NE,45,0.0,0.0,83,0.09,,,0.17,meteohub,2013-02-22 09:10:00,
2013-02-22 04:15:00,35.2,30.6,30.39,NE,45,0.0,1.0,83,0.09,,,0.18,meteohub,2013-02-22 09:15:00,
2013-02-22 04:20:00,35.2,30.6,30.38,NE,45,0.0,1.0,83,0.08,,,0.18,meteohub,2013-02-22 09:20:00,
2013-02-22 04:25:00,35.1,30.7,30.38,North,0,0.0,1.0,84,0.07,,,0.18,meteohub,2013-02-22 09:25:00,
2013-02-22 04:31:00,34.9,30.6,30.38,NE,45,0.0,0.0,84,0.08,,,0.19,meteohub,2013-02-22 09:31:00,
2013-02-22 04:36:00,34.7,30.4,30.37,East,90,0.0,0.0,84,0.07,,,0.19,meteohub,2013-02-22 09:36:00,
2013-02-22 04:41:00,34.7,30.4,30.37,East,90,0.0,0.0,84,0.06,,,0.19,meteohub,2013-02-22 09:41:00,
2013-02-22 04:46:00,34.5,30.2,30.36,NE,45,0.0,0.0,84,0.06,,,0.20,meteohub,2013-02-22 09:46:00,
2013-02-22 04:51:00,34.3,30.0,30.37,East,90,0.0,0.0,84,0.05,,,0.20,meteohub,2013-02-22 09:51:00,
2013-02-22 04:56:00,34.2,29.8,30.37,East,90,0.0,0.0,84,0.05,,,0.20,meteohub,2013-02-22 09:56:00,
2013-02-22 05:01:00,34.2,29.8,30.36,North,0,0.0,0.0,84,0.04,,,0.20,meteohub,2013-02-22 10:01:00,
2013-02-22 05:06:00,34.2,29.8,30.36,SE,135,0.0,4.0,84,0.05,,,0.21,meteohub,2013-02-22 10:06:00,
2013-02-22 05:12:00,34.0,29.7,30.35,NE,45,0.0,4.0,84,0.05,,,0.21,meteohub,2013-02-22 10:12:00,
2013-02-22 05:17:00,34.0,29.7,30.35,NE,45,0.0,0.0,84,0.04,,,0.21,meteohub,2013-02-22 10:17:00,
2013-02-22 05:22:00,34.0,29.7,30.36,East,90,0.0,0.0,84,0.05,,,0.22,meteohub,2013-02-22 10:22:00,
2013-02-22 05:27:00,33.8,29.5,30.35,SE,135,0.0,0.0,84,0.04,,,0.22,meteohub,2013-02-22 10:27:00,
2013-02-22 05:32:00,33.8,29.5,30.34,NE,45,0.0,3.0,84,0.04,,,0.22,meteohub,2013-02-22 10:32:00,
2013-02-22 05:37:00,33.6,29.7,30.34,NE,45,0.0,3.0,85,0.04,,,0.22,meteohub,2013-02-22 10:37:00,
2013-02-22 05:42:00,33.4,29.5,30.34,ESE,113,0.0,3.0,85,0.04,,,0.22,meteohub,2013-02-22 10:42:00,
2013-02-22 05:47:00,33.4,29.5,30.35,North,0,0.0,0.0,85,0.04,,,0.24,meteohub,2013-02-22 10:47:00,
2013-02-22 05:52:00,33.4,29.5,30.35,North,0,0.0,0.0,85,0.04,,,0.24,meteohub,2013-02-22 10:52:00,
2013-02-22 05:57:00,33.4,29.5,30.35,East,90,0.0,0.0,85,0.04,,,0.24,meteohub,2013-02-22 10:57:00,
2013-02-22 06:02:00,33.3,29.3,30.35,NE,45,0.0,0.0,85,0.04,,,0.24,meteohub,2013-02-22 11:02:00,
2013-02-22 06:08:00,33.3,29.3,30.34,East,90,0.0,0.0,85,0.02,,,0.24,meteohub,2013-02-22 11:08:00,
2013-02-22 06:13:00,33.3,29.3,30.34,East,90,0.0,0.0,85,0.02,,,0.24,meteohub,2013-02-22 11:13:00,
2013-02-22 06:18:00,33.1,29.1,30.32,East,90,0.0,0.0,85,0.01,,,0.24,meteohub,2013-02-22 11:18:00,
2013-02-22 06:23:00,32.9,28.9,30.35,South,180,0.0,0.0,85,0.01,,,0.24,meteohub,2013-02-22 11:23:00,
2013-02-22 06:28:00,32.9,28.9,30.38,South,180,0.0,0.0,85,0.01,,,0.24,meteohub,2013-02-22 11:28:00,
2013-02-22 06:33:00,32.9,28.9,30.40,South,180,0.0,0.0,85,0.01,,,0.24,meteohub,2013-02-22 11:33:00,
2013-02-22 06:38:00,32.9,28.9,30.40,South,180,0.0,0.0,85,0.01,,,0.24,meteohub,2013-02-22 11:38:00,
2013-02-22 06:43:00,32.9,29.1,30.40,South,180,0.0,0.0,86,0.00,,,0.24,meteohub,2013-02-22 11:43:00,
2013-02-22 06:48:00,33.1,29.3,30.39,NE,45,0.0,0.0,86,0.00,,,0.24,meteohub,2013-02-22 11:48:00,
2013-02-22 06:53:00,33.1,29.3,30.39,East,90,0.0,0.0,86,0.00,,,0.24,meteohub,2013-02-22 11:53:00,
2013-02-22 06:59:00,33.1,29.3,30.38,SE,135,0.0,0.0,86,0.00,,,0.24,meteohub,2013-02-22 11:59:00,
2013-02-22 07:04:00,33.1,29.3,30.38,SE,135,0.0,0.0,86,0.00,,,0.24,meteohub,2013-02-22 12:04:00,
2013-02-22 07:09:00,33.1,29.3,30.39,SE,135,0.0,0.0,86,0.00,,,0.24,meteohub,2013-02-22 12:09:00,
2013-02-22 07:14:00,33.1,29.7,30.40,NE,45,0.0,0.0,87,0.00,,,0.24,meteohub,2013-02-22 12:14:00,
2013-02-22 07:19:00,33.1,29.7,30.39,NE,45,0.0,0.0,87,0.00,,,0.24,meteohub,2013-02-22 12:19:00,
2013-02-22 07:24:00,33.1,29.7,30.40,East,90,0.0,0.0,87,0.00,,,0.24,meteohub,2013-02-22 12:24:00,
2013-02-22 07:30:00,33.1,29.7,30.40,NE,45,0.0,0.0,87,0.00,,,0.24,meteohub,2013-02-22 12:30:00,
2013-02-22 07:35:00,33.1,29.7,30.40,NE,45,0.0,0.0,87,0.00,,,0.24,meteohub,2013-02-22 12:35:00,
2013-02-22 07:40:00,33.3,29.5,30.41,NE,45,0.0,0.0,86,0.00,,,0.24,meteohub,2013-02-22 12:40:00,
2013-02-22 07:45:00,33.3,29.5,30.42,East,90,0.0,0.0,86,0.00,,,0.24,meteohub,2013-02-22 12:45:00,
2013-02-22 07:50:00,33.4,29.7,30.43,East,90,0.0,0.0,86,0.00,,,0.24,meteohub,2013-02-22 12:50:00,
2013-02-22 07:55:00,33.4,29.7,30.43,East,90,0.0,0.0,86,0.00,,,0.24,meteohub,2013-02-22 12:55:00,
2013-02-22 08:00:00,33.6,29.8,30.43,East,90,0.0,0.0,86,0.00,,,0.24,meteohub,2013-02-22 13:00:00,
2013-02-22 08:05:00,33.6,29.8,30.44,NW,315,0.0,0.0,86,0.00,,,0.24,meteohub,2013-02-22 13:05:00,
2013-02-22 08:11:00,33.6,29.8,30.42,NW,315,0.0,0.0,86,0.00,,,0.24,meteohub,2013-02-22 13:11:00,
2013-02-22 08:16:00,33.8,29.8,30.41,North,0,0.0,0.0,85,0.00,,,0.24,meteohub,2013-02-22 13:16:00,
2013-02-22 08:21:00,33.8,29.8,30.41,East,90,0.0,0.0,85,0.00,,,0.24,meteohub,2013-02-22 13:21:00,
2013-02-22 08:26:00,34.0,30.0,30.42,NE,45,0.0,0.0,85,0.00,,,0.24,meteohub,2013-02-22 13:26:00,
2013-02-22 08:31:00,34.2,30.2,30.42,NE,45,0.0,0.0,85,0.00,,,0.24,meteohub,2013-02-22 13:31:00,
2013-02-22 08:36:00,34.2,29.8,30.43,NE,45,0.0,0.0,84,0.00,,,0.24,meteohub,2013-02-22 13:36:00,
2013-02-22 08:41:00,34.3,30.0,30.43,East,90,0.0,0.0,84,0.00,,,0.24,meteohub,2013-02-22 13:41:00,
2013-02-22 08:46:00,34.3,30.0,30.42,East,90,0.0,0.0,84,0.00,,,0.24,meteohub,2013-02-22 13:46:00,
2013-02-22 08:51:00,34.2,29.5,30.43,East,90,0.0,0.0,83,0.00,,,0.24,meteohub,2013-02-22 13:51:00,
2013-02-22 08:57:00,34.3,29.7,30.43,East,90,0.0,0.0,83,0.00,,,0.24,meteohub,2013-02-22 13:57:00,
2013-02-22 09:02:00,34.7,30.0,30.44,East,90,0.0,0.0,83,0.00,,,0.24,meteohub,2013-02-22 14:02:00,
2013-02-22 09:07:00,34.7,30.0,30.44,East,90,0.0,0.0,83,0.00,,,0.24,meteohub,2013-02-22 14:07:00,
2013-02-22 09:12:00,34.7,29.8,30.44,NE,45,0.0,0.0,82,0.00,,,0.24,meteohub,2013-02-22 14:12:00,
2013-02-22 09:17:00,34.7,29.8,30.43,NE,45,0.0,0.0,82,0.00,,,0.24,meteohub,2013-02-22 14:17:00,
2013-02-22 09:22:00,34.7,29.8,30.42,NE,45,0.0,0.0,82,0.00,,,0.24,meteohub,2013-02-22 14:22:00,
2013-02-22 09:28:00,35.1,30.2,30.41,East,90,0.0,0.0,82,0.00,,,0.24,meteohub,2013-02-22 14:28:00,
2013-02-22 09:33:00,35.2,30.4,30.40,NE,45,0.0,0.0,82,0.00,,,0.24,meteohub,2013-02-22 14:33:00,
2013-02-22 09:38:00,35.2,30.4,30.40,ENE,68,0.0,0.0,82,0.00,,,0.24,meteohub,2013-02-22 14:38:00,
2013-02-22 09:43:00,35.4,30.6,30.40,East,90,0.0,0.0,82,0.00,,,0.24,meteohub,2013-02-22 14:43:00,
2013-02-22 09:48:00,35.4,30.6,30.40,NE,45,0.0,0.0,82,0.00,,,0.24,meteohub,2013-02-22 14:48:00,
2013-02-22 09:53:00,35.4,30.6,30.39,NE,45,0.0,0.0,82,0.00,,,0.24,meteohub,2013-02-22 14:53:00,
2013-02-22 09:58:00,35.4,30.6,30.39,ESE,113,0.0,0.0,82,0.00,,,0.24,meteohub,2013-02-22 14:58:00,
2013-02-22 10:03:00,35.2,30.4,30.38,East,90,0.0,0.0,82,0.00,,,0.24,meteohub,2013-02-22 15:03:00,
2013-02-22 10:09:00,35.2,30.0,30.39,East,90,0.0,0.0,81,0.00,,,0.24,meteohub,2013-02-22 15:09:00,
2013-02-22 10:14:00,35.6,30.0,30.39,East,90,0.0,0.0,80,0.00,,,0.24,meteohub,2013-02-22 15:14:00,
2013-02-22 10:19:00,36.0,30.4,30.38,East,90,0.0,0.0,80,0.00,,,0.24,meteohub,2013-02-22 15:19:00,
2013-02-22 10:24:00,36.0,30.0,30.38,NE,45,0.0,0.0,79,0.00,,,0.24,meteohub,2013-02-22 15:24:00,
2013-02-22 10:29:00,36.3,30.4,30.38,East,90,0.0,0.0,79,0.00,,,0.24,meteohub,2013-02-22 15:29:00,
2013-02-22 10:34:00,36.7,30.6,30.38,East,90,0.0,0.0,78,0.00,,,0.24,meteohub,2013-02-22 15:34:00,
2013-02-22 10:39:00,36.9,30.4,30.38,East,90,0.0,0.0,77,0.00,,,0.24,meteohub,2013-02-22 15:39:00,
2013-02-22 10:45:00,36.7,29.8,30.39,East,90,0.0,0.0,76,0.00,,,0.24,meteohub,2013-02-22 15:45:00,
2013-02-22 10:50:00,36.7,29.5,30.38,East,90,0.0,0.0,75,0.00,,,0.24,meteohub,2013-02-22 15:50:00,
2013-02-22 10:55:00,36.7,29.1,30.38,East,90,0.0,0.0,74,0.00,,,0.24,meteohub,2013-02-22 15:55:00,
2013-02-22 11:00:00,37.0,29.5,30.39,East,90,0.0,0.0,74,0.00,,,0.24,meteohub,2013-02-22 16:00:00,
2013-02-22 11:05:00,37.2,29.3,30.40,East,90,0.0,1.0,73,0.00,,,0.24,meteohub,2013-02-22 16:05:00,
2013-02-22 11:10:00,37.6,31.1,30.39,NE,45,0.0,1.0,77,0.00,,,0.24,meteohub,2013-02-22 16:10:00,
2013-02-22 11:15:00,37.8,30.9,30.39,NE,45,0.0,0.0,76,0.00,,,0.24,meteohub,2013-02-22 16:15:00,
2013-02-22 11:20:00,37.8,30.9,30.39,East,90,0.0,0.0,76,0.00,,,0.24,meteohub,2013-02-22 16:20:00,
2013-02-22 11:25:00,37.9,31.1,30.38,North,0,0.0,0.0,76,0.00,,,0.24,meteohub,2013-02-22 16:25:00,
2013-02-22 11:30:00,38.1,31.3,30.38,NE,45,0.0,0.0,76,0.00,,,0.24,meteohub,2013-02-22 16:30:00,
2013-02-22 11:36:00,38.5,31.3,30.38,NNE,23,0.0,0.0,75,0.00,,,0.24,meteohub,2013-02-22 16:36:00,
2013-02-22 11:41:00,38.1,30.9,30.38,NE,45,0.0,0.0,75,0.00,,,0.24,meteohub,2013-02-22 16:41:00,
2013-02-22 11:46:00,38.3,31.1,30.38,NE,45,0.0,0.0,75,0.00,,,0.24,meteohub,2013-02-22 16:46:00,
2013-02-22 11:51:00,38.7,31.5,30.38,NE,45,0.0,0.0,75,0.00,,,0.24,meteohub,2013-02-22 16:51:00,
2013-02-22 11:56:00,38.7,31.5,30.38,North,0,0.0,0.0,75,0.00,,,0.24,meteohub,2013-02-22 16:56:00,
2013-02-22 12:01:00,38.8,31.6,30.38,North,0,0.0,0.0,75,0.00,,,0.24,meteohub,2013-02-22 17:01:00,
2013-02-22 12:06:00,39.0,31.8,30.37,NE,45,0.0,0.0,75,0.00,,,0.24,meteohub,2013-02-22 17:06:00,
2013-02-22 12:12:00,38.8,31.3,30.38,NE,45,0.0,0.0,74,0.00,,,0.24,meteohub,2013-02-22 17:12:00,
2013-02-22 12:17:00,38.8,31.6,30.38,NE,45,0.0,0.0,75,0.00,,,0.24,meteohub,2013-02-22 17:17:00,
2013-02-22 12:22:00,39.0,31.8,30.37,NE,45,0.0,0.0,75,0.00,,,0.24,meteohub,2013-02-22 17:22:00,
2013-02-22 12:27:00,38.8,31.3,30.38,NE,45,0.0,0.0,74,0.00,,,0.24,meteohub,2013-02-22 17:27:00,
2013-02-22 12:32:00,38.7,30.7,30.38,NE,45,0.0,0.0,73,0.00,,,0.24,meteohub,2013-02-22 17:32:00,
2013-02-22 12:37:00,38.7,30.7,30.38,NE,45,0.0,0.0,73,0.00,,,0.24,meteohub,2013-02-22 17:37:00,
2013-02-22 12:42:00,38.5,30.9,30.37,NE,45,0.0,0.0,74,0.00,,,0.24,meteohub,2013-02-22 17:42:00,
2013-02-22 12:47:00,38.5,31.3,30.37,NE,45,0.0,0.0,75,0.00,,,0.24,meteohub,2013-02-22 17:47:00,
2013-02-22 12:53:00,38.5,31.3,30.36,NE,45,0.0,0.0,75,0.00,,,0.24,meteohub,2013-02-22 17:53:00,
2013-02-22 12:58:00,38.5,31.3,30.35,NE,45,0.0,0.0,75,0.00,,,0.24,meteohub,2013-02-22 17:58:00,
2013-02-22 13:03:00,38.3,31.5,30.35,NE,45,0.0,0.0,76,0.01,,,0.25,meteohub,2013-02-22 18:03:00,
2013-02-22 13:08:00,38.3,31.5,30.35,NE,45,0.0,0.0,76,0.01,,,0.25,meteohub,2013-02-22 18:08:00,
2013-02-22 13:13:00,38.1,31.6,30.34,NE,45,0.0,0.0,77,0.01,,,0.25,meteohub,2013-02-22 18:13:00,
2013-02-22 13:18:00,38.3,32.0,30.34,NE,45,0.0,0.0,78,0.01,,,0.25,meteohub,2013-02-22 18:18:00,
2013-02-22 13:23:00,38.7,32.7,30.33,NE,45,0.0,0.0,79,0.01,,,0.25,meteohub,2013-02-22 18:23:00,
2013-02-22 13:28:00,38.7,32.4,30.32,NE,45,0.0,0.0,78,0.01,,,0.25,meteohub,2013-02-22 18:28:00,
2013-02-22 13:34:00,39.0,32.7,30.32,NE,45,0.0,0.0,78,0.01,,,0.25,meteohub,2013-02-22 18:34:00,
2013-02-22 13:39:00,39.4,32.7,30.32,NE,45,0.0,0.0,77,0.01,,,0.25,meteohub,2013-02-22 18:39:00,
2013-02-22 13:44:00,39.4,32.7,30.32,NE,45,0.0,0.0,77,0.01,,,0.25,meteohub,2013-02-22 18:44:00,
2013-02-22 13:49:00,39.2,32.5,30.32,NE,45,0.0,0.0,77,0.01,,,0.25,meteohub,2013-02-22 18:49:00,
2013-02-22 13:54:00,39.0,32.4,30.32,NE,45,0.0,0.0,77,0.01,,,0.25,meteohub,2013-02-22 18:54:00,
2013-02-22 13:59:00,38.8,32.2,30.32,NE,45,0.0,0.0,77,0.00,,,0.25,meteohub,2013-02-22 18:59:00,
2013-02-22 14:04:00,38.8,32.2,30.32,NE,45,0.0,0.0,77,0.00,,,0.25,meteohub,2013-02-22 19:04:00,
2013-02-22 14:09:00,38.8,32.2,30.32,NNE,23,0.0,0.0,77,0.00,,,0.25,meteohub,2013-02-22 19:09:00,
2013-02-22 14:16:00,38.8,32.2,30.31,NNE,23,0.0,0.0,77,0.00,,,0.25,meteohub,2013-02-22 19:16:00,
2013-02-22 14:21:00,38.8,32.0,30.30,NE,45,0.0,0.0,76,0.00,,,0.25,meteohub,2013-02-22 19:21:00,
2013-02-22 14:26:00,38.8,32.0,30.31,NNE,23,0.0,0.0,76,0.00,,,0.25,meteohub,2013-02-22 19:26:00,
2013-02-22 14:31:00,38.8,32.2,30.31,NNE,23,0.0,0.0,77,0.00,,,0.25,meteohub,2013-02-22 19:31:00,
2013-02-22 14:36:00,38.5,31.8,30.30,NNE,23,0.0,0.0,77,0.00,,,0.25,meteohub,2013-02-22 19:36:00,
2013-02-22 14:41:00,38.3,32.0,30.30,NNE,23,0.0,0.0,78,0.00,,,0.25,meteohub,2013-02-22 19:41:00,
2013-02-22 14:46:00,38.1,32.2,30.30,NNE,23,0.0,0.0,79,0.00,,,0.25,meteohub,2013-02-22 19:46:00,
2013-02-22 14:52:00,38.1,32.5,30.30,NNE,23,0.0,0.0,80,0.00,,,0.25,meteohub,2013-02-22 19:52:00,
2013-02-22 14:57:00,38.1,32.7,30.30,NNE,23,0.0,0.0,81,0.00,,,0.25,meteohub,2013-02-22 19:57:00,
2013-02-22 15:02:00,38.1,32.7,30.30,North,0,0.0,0.0,81,0.00,,,0.25,meteohub,2013-02-22 20:02:00,
2013-02-22 15:07:00,37.9,32.7,30.30,NNE,23,0.0,0.0,81,0.00,,,0.25,meteohub,2013-02-22 20:07:00,
2013-02-22 15:12:00,37.9,32.9,30.29,NW,315,0.0,0.0,82,0.00,,,0.25,meteohub,2013-02-22 20:12:00,
2013-02-22 15:17:00,37.9,32.9,30.30,NE,45,0.0,0.0,82,0.00,,,0.25,meteohub,2013-02-22 20:17:00,
2013-02-22 15:22:00,37.9,32.9,30.30,North,0,0.0,0.0,82,0.00,,,0.25,meteohub,2013-02-22 20:22:00,
2013-02-22 15:27:00,37.8,32.7,30.30,NE,45,0.0,0.0,82,0.00,,,0.25,meteohub,2013-02-22 20:27:00,
2013-02-22 15:32:00,37.6,32.5,30.30,North,0,0.0,0.0,82,0.01,,,0.26,meteohub,2013-02-22 20:32:00,
2013-02-22 15:37:00,37.4,32.7,30.30,NNE,23,0.0,0.0,83,0.01,,,0.26,meteohub,2013-02-22 20:37:00,
2013-02-22 15:42:00,37.2,32.0,30.30,NNE,23,0.0,0.0,81,0.01,,,0.26,meteohub,2013-02-22 20:42:00,
2013-02-22 15:47:00,36.9,31.6,30.30,NE,45,0.0,0.0,81,0.02,,,0.27,meteohub,2013-02-22 20:47:00,
2013-02-22 15:52:00,36.7,31.6,30.30,North,0,0.0,0.0,82,0.02,,,0.27,meteohub,2013-02-22 20:52:00,
2013-02-22 15:58:00,36.7,31.6,30.30,NE,45,0.0,0.0,82,0.02,,,0.27,meteohub,2013-02-22 20:58:00,
2013-02-22 16:03:00,36.5,31.8,30.31,NE,45,0.0,0.0,83,0.02,,,0.27,meteohub,2013-02-22 21:03:00,
2013-02-22 16:08:00,36.5,31.8,30.31,NE,45,0.0,0.0,83,0.02,,,0.27,meteohub,2013-02-22 21:08:00,
2013-02-22 16:13:00,36.5,32.2,30.31,NNE,23,0.0,0.0,84,0.05,,,0.30,meteohub,2013-02-22 21:13:00,
2013-02-22 16:18:00,36.3,32.0,30.30,NE,45,0.0,0.0,84,0.05,,,0.30,meteohub,2013-02-22 21:18:00,
2013-02-22 16:23:00,36.3,32.0,30.31,NE,45,0.0,0.0,84,0.05,,,0.30,meteohub,2013-02-22 21:23:00,
2013-02-22 16:28:00,36.3,32.2,30.30,NE,45,0.0,0.0,85,0.05,,,0.30,meteohub,2013-02-22 21:28:00,
2013-02-22 16:33:00,36.3,32.2,30.30,NE,45,0.0,0.0,85,0.04,,,0.30,meteohub,2013-02-22 21:33:00,
2013-02-22 16:38:00,36.3,32.2,30.30,NE,45,0.0,0.0,85,0.05,,,0.31,meteohub,2013-02-22 21:38:00,
2013-02-22 16:43:00,36.3,32.5,30.30,NE,45,0.0,0.0,86,0.05,,,0.31,meteohub,2013-02-22 21:43:00,
2013-02-22 16:48:00,36.5,32.7,30.30,East,90,0.0,0.0,86,0.04,,,0.31,meteohub,2013-02-22 21:48:00,
2013-02-22 16:53:00,36.3,32.5,30.29,NE,45,0.0,0.0,86,0.04,,,0.31,meteohub,2013-02-22 21:53:00,
2013-02-22 16:58:00,36.3,32.5,30.30,NE,45,0.0,0.0,86,0.04,,,0.31,meteohub,2013-02-22 21:58:00,
2013-02-22 17:04:00,36.3,32.9,30.30,NE,45,0.0,0.0,87,0.04,,,0.31,meteohub,2013-02-22 22:04:00,
2013-02-22 17:09:00,36.3,32.9,30.30,NE,45,0.0,0.0,87,0.04,,,0.31,meteohub,2013-02-22 22:09:00,
2013-02-22 17:14:00,36.3,32.9,30.30,NE,45,0.0,0.0,87,0.01,,,0.31,meteohub,2013-02-22 22:14:00,
2013-02-22 17:19:00,36.3,32.9,30.30,NE,45,0.0,0.0,87,0.02,,,0.32,meteohub,2013-02-22 22:19:00,
2013-02-22 17:24:00,36.3,33.1,30.30,NE,45,0.0,0.0,88,0.02,,,0.32,meteohub,2013-02-22 22:24:00,
2013-02-22 17:29:00,36.3,33.1,30.30,NE,45,0.0,0.0,88,0.02,,,0.32,meteohub,2013-02-22 22:29:00,
2013-02-22 17:34:00,36.1,32.9,30.30,NE,45,0.0,0.0,88,0.02,,,0.32,meteohub,2013-02-22 22:34:00,
2013-02-22 17:39:00,36.1,32.9,30.30,NE,45,0.0,0.0,88,0.01,,,0.32,meteohub,2013-02-22 22:39:00,
2013-02-22 17:44:00,36.3,33.1,30.31,NE,45,0.0,0.0,88,0.01,,,0.32,meteohub,2013-02-22 22:44:00,
2013-02-22 17:49:00,36.1,33.3,30.31,NE,45,0.0,0.0,89,0.01,,,0.32,meteohub,2013-02-22 22:49:00,
2013-02-22 17:55:00,36.1,33.3,30.31,NE,45,0.0,0.0,89,0.01,,,0.32,meteohub,2013-02-22 22:55:00,
2013-02-22 18:00:00,36.3,33.4,30.30,NNE,23,0.0,0.0,89,0.01,,,0.32,meteohub,2013-02-22 23:00:00,
2013-02-22 18:05:00,36.3,33.4,30.30,NE,45,0.0,0.0,89,0.01,,,0.32,meteohub,2013-02-22 23:05:00,
2013-02-22 18:10:00,36.3,33.4,30.30,NE,45,0.0,0.0,89,0.00,,,0.32,meteohub,2013-02-22 23:10:00,
2013-02-22 18:15:00,36.1,33.4,30.30,NE,45,0.0,0.0,90,0.00,,,0.32,meteohub,2013-02-22 23:15:00,
2013-02-22 18:20:00,36.1,33.4,30.31,NE,45,0.0,0.0,90,0.00,,,0.32,meteohub,2013-02-22 23:20:00,
2013-02-22 18:25:00,36.1,33.4,30.30,NE,45,0.0,0.0,90,0.00,,,0.32,meteohub,2013-02-22 23:25:00,
2013-02-22 18:30:00,36.1,33.4,30.30,NE,45,0.0,0.0,90,0.00,,,0.32,meteohub,2013-02-22 23:30:00,
2013-02-22 18:35:00,36.1,33.4,30.29,NE,45,0.0,0.0,90,0.00,,,0.32,meteohub,2013-02-22 23:35:00,
2013-02-22 18:41:00,36.1,33.4,30.29,NE,45,0.0,0.0,90,0.00,,,0.32,meteohub,2013-02-22 23:41:00,
2013-02-22 18:46:00,36.1,33.4,30.29,NE,45,0.0,0.0,90,0.00,,,0.32,meteohub,2013-02-22 23:46:00,
2013-02-22 18:51:00,36.1,33.4,30.29,NE,45,0.0,0.0,90,0.00,,,0.32,meteohub,2013-02-22 23:51:00,
2013-02-22 18:56:00,36.1,33.4,30.29,NE,45,0.0,0.0,90,0.00,,,0.32,meteohub,2013-02-22 23:56:00,
2013-02-22 19:01:00,36.1,33.4,30.29,NE,45,0.0,0.0,90,0.00,,,0.32,meteohub,2013-02-23 00:01:00,
2013-02-22 19:06:00,36.1,33.4,30.29,NE,45,0.0,0.0,90,0.00,,,0.32,meteohub,2013-02-23 00:06:00,
2013-02-22 19:11:00,36.1,33.8,30.29,North,0,0.0,0.0,91,0.01,,,0.33,meteohub,2013-02-23 00:11:00,
2013-02-22 19:17:00,36.1,33.8,30.28,NE,45,0.0,0.0,91,0.01,,,0.33,meteohub,2013-02-23 00:17:00,
2013-02-22 19:22:00,36.1,33.8,30.27,NE,45,0.0,0.0,91,0.01,,,0.33,meteohub,2013-02-23 00:22:00,
2013-02-22 19:27:00,36.1,33.8,30.27,NE,45,0.0,0.0,91,0.01,,,0.33,meteohub,2013-02-23 00:27:00,
2013-02-22 19:32:00,36.1,33.8,30.27,NE,45,0.0,0.0,91,0.01,,,0.33,meteohub,2013-02-23 00:32:00,
2013-02-22 19:37:00,36.1,33.8,30.27,NE,45,0.0,0.0,91,0.01,,,0.33,meteohub,2013-02-23 00:37:00,
2013-02-22 19:43:00,36.3,34.0,30.28,NE,45,0.0,0.0,91,0.01,,,0.33,meteohub,2013-02-23 00:43:00,
2013-02-22 19:48:00,36.3,34.0,30.28,North,0,0.0,0.0,91,0.01,,,0.33,meteohub,2013-02-23 00:48:00,
2013-02-22 19:53:00,36.3,34.0,30.28,North,0,0.0,0.0,91,0.01,,,0.33,meteohub,2013-02-23 00:53:00,
2013-02-22 19:58:00,36.3,34.0,30.29,North,0,0.0,0.0,91,0.01,,,0.33,meteohub,2013-02-23 00:58:00,
2013-02-22 20:03:00,36.5,34.2,30.30,North,0,0.0,0.0,91,0.01,,,0.33,meteohub,2013-02-23 01:03:00,
2013-02-22 20:08:00,36.5,34.2,30.28,North,0,0.0,0.0,91,0.00,,,0.33,meteohub,2013-02-23 01:08:00,
2013-02-22 20:13:00,36.5,34.2,30.29,North,0,0.0,0.0,91,0.00,,,0.33,meteohub,2013-02-23 01:13:00,
2013-02-22 20:18:00,36.5,34.3,30.29,North,0,0.0,0.0,92,0.00,,,0.33,meteohub,2013-02-23 01:18:00,
2013-02-22 20:23:00,36.5,34.3,30.30,North,0,0.0,0.0,92,0.00,,,0.33,meteohub,2013-02-23 01:23:00,
2013-02-22 20:28:00,36.5,34.3,30.30,North,0,0.0,0.0,92,0.00,,,0.33,meteohub,2013-02-23 01:28:00,
2013-02-22 20:34:00,36.5,34.3,30.29,North,0,0.0,0.0,92,0.00,,,0.33,meteohub,2013-02-23 01:34:00,
2013-02-22 20:39:00,36.5,34.3,30.29,North,0,0.0,0.0,92,0.00,,,0.33,meteohub,2013-02-23 01:39:00,
2013-02-22 20:44:00,36.5,34.3,30.29,North,0,0.0,0.0,92,0.01,,,0.34,meteohub,2013-02-23 01:44:00,
2013-02-22 20:49:00,36.7,34.5,30.29,NNE,23,0.0,0.0,92,0.01,,,0.34,meteohub,2013-02-23 01:49:00,
2013-02-22 20:54:00,36.7,34.5,30.29,North,0,0.0,0.0,92,0.01,,,0.34,meteohub,2013-02-23 01:54:00,
2013-02-22 20:59:00,36.7,34.5,30.29,North,0,0.0,0.0,92,0.02,,,0.35,meteohub,2013-02-23 01:59:00,
2013-02-22 21:04:00,36.7,34.5,30.28,North,0,0.0,0.0,92,0.02,,,0.35,meteohub,2013-02-23 02:04:00,
2013-02-22 21:09:00,36.5,34.3,30.27,North,0,0.0,0.0,92,0.02,,,0.35,meteohub,2013-02-23 02:09:00,
2013-02-22 21:14:00,36.7,34.5,30.27,NE,45,0.0,0.0,92,0.02,,,0.35,meteohub,2013-02-23 02:14:00,
2013-02-22 21:19:00,36.7,34.5,30.28,NE,45,0.0,0.0,92,0.04,,,0.37,meteohub,2013-02-23 02:19:00,
2013-02-22 21:24:00,36.7,34.5,30.28,NE,45,0.0,0.0,92,0.04,,,0.37,meteohub,2013-02-23 02:24:00,
2013-02-22 21:30:00,36.7,34.5,30.28,NE,45,0.0,0.0,92,0.05,,,0.38,meteohub,2013-02-23 02:30:00,
2013-02-22 21:35:00,36.7,34.5,30.27,East,90,0.0,0.0,92,0.05,,,0.38,meteohub,2013-02-23 02:35:00,
2013-02-22 21:40:00,36.7,34.5,30.27,NE,45,0.0,0.0,92,0.04,,,0.38,meteohub,2013-02-23 02:40:00,
2013-02-22 21:45:00,36.7,34.9,30.28,NE,45,0.0,0.0,93,0.04,,,0.38,meteohub,2013-02-23 02:45:00,
2013-02-22 21:50:00,36.7,34.9,30.28,NE,45,0.0,0.0,93,0.04,,,0.38,meteohub,2013-02-23 02:50:00,
2013-02-22 21:55:00,36.7,34.9,30.28,NE,45,0.0,0.0,93,0.02,,,0.38,meteohub,2013-02-23 02:55:00,
2013-02-22 22:01:00,36.9,35.1,30.27,NE,45,0.0,0.0,93,0.02,,,0.38,meteohub,2013-02-23 03:01:00,
2013-02-22 22:06:00,36.9,35.1,30.27,NE,45,0.0,0.0,93,0.04,,,0.39,meteohub,2013-02-23 03:06:00,
2013-02-22 22:11:00,36.9,35.1,30.27,NE,45,0.0,0.0,93,0.02,,,0.39,meteohub,2013-02-23 03:11:00,
2013-02-22 22:17:00,36.7,34.9,30.27,NE,45,0.0,0.0,93,0.02,,,0.39,meteohub,2013-02-23 03:17:00,
2013-02-22 22:22:00,36.7,34.9,30.28,NE,45,0.0,0.0,93,0.02,,,0.39,meteohub,2013-02-23 03:22:00,
2013-02-22 22:27:00,36.7,34.9,30.28,NE,45,0.0,0.0,93,0.01,,,0.39,meteohub,2013-02-23 03:27:00,
2013-02-22 22:33:00,36.7,34.9,30.28,North,0,0.0,0.0,93,0.02,,,0.40,meteohub,2013-02-23 03:33:00,
2013-02-22 22:38:00,36.7,34.9,30.28,NE,45,0.0,0.0,93,0.02,,,0.40,meteohub,2013-02-23 03:38:00,
2013-02-22 22:43:00,36.7,34.9,30.28,NE,45,0.0,0.0,93,0.02,,,0.40,meteohub,2013-02-23 03:43:00,
2013-02-22 22:48:00,36.7,34.9,30.28,North,0,0.0,0.0,93,0.02,,,0.40,meteohub,2013-02-23 03:48:00,
2013-02-22 22:53:00,36.7,34.9,30.27,NE,45,0.0,0.0,93,0.02,,,0.40,meteohub,2013-02-23 03:53:00,
2013-02-22 22:58:00,36.5,34.7,30.27,NE,45,0.0,0.0,93,0.02,,,0.40,meteohub,2013-02-23 03:58:00,
2013-02-22 23:03:00,36.5,34.7,30.27,NE,45,0.0,0.0,93,0.04,,,0.41,meteohub,2013-02-23 04:03:00,
2013-02-22 23:09:00,36.5,34.7,30.27,North,0,0.0,0.0,93,0.02,,,0.41,meteohub,2013-02-23 04:09:00,
2013-02-22 23:14:00,36.3,34.5,30.26,NE,45,0.0,0.0,93,0.02,,,0.41,meteohub,2013-02-23 04:14:00,
2013-02-22 23:19:00,36.3,34.5,30.26,NE,45,0.0,0.0,93,0.02,,,0.41,meteohub,2013-02-23 04:19:00,
2013-02-22 23:24:00,36.3,34.5,30.25,East,90,0.0,0.0,93,0.02,,,0.41,meteohub,2013-02-23 04:24:00,
2013-02-22 23:29:00,36.3,34.5,30.25,NE,45,0.0,0.0,93,0.04,,,0.43,meteohub,2013-02-23 04:29:00,
2013-02-22 23:36:00,36.3,34.5,30.24,NE,45,0.0,0.0,93,0.02,,,0.43,meteohub,2013-02-23 04:36:00,
2013-02-22 23:41:00,36.3,34.5,30.24,NE,45,0.0,0.0,93,0.02,,,0.43,meteohub,2013-02-23 04:41:00,
2013-02-22 23:46:00,36.3,34.5,30.23,NE,45,0.0,0.0,93,0.02,,,0.43,meteohub,2013-02-23 04:46:00,
2013-02-22 23:51:00,36.3,34.5,30.23,East,90,0.0,0.0,93,0.02,,,0.43,meteohub,2013-02-23 04:51:00,
2013-02-22 23:56:00,36.3,34.5,30.23,NE,45,0.0,0.0,93,0.02,,,0.43,meteohub,2013-02-23 04:56:00,